createdAt,value
2019-02-09T00:03:14.696Z,5.30
2019-02-09T00:08:21.453Z,5.30
2019-02-09T00:13:27.196Z,5.40
2019-02-09T00:18:33.887Z,5.40
2019-02-09T00:23:40.821Z,5.40
2019-02-09T00:28:47.530Z,5.40
2019-02-09T00:33:54.379Z,5.40
2019-02-09T00:39:00.663Z,5.30
2019-02-09T00:44:08.580Z,5.40
2019-02-09T00:49:14.959Z,5.40
2019-02-09T00:54:21.388Z,5.40
2019-02-09T00:59:27.132Z,5.40
2019-02-09T01:04:33.965Z,5.30
2019-02-09T01:09:40.770Z,5.20
2019-02-09T01:14:48.653Z,5.10
2019-02-09T01:19:55.265Z,5.10
2019-02-09T01:25:02.021Z,5.00
2019-02-09T01:30:13.847Z,4.90
2019-02-09T01:35:22.345Z,4.90
2019-02-09T01:40:30.851Z,4.70
2019-02-09T01:45:37.234Z,4.80
2019-02-09T01:50:43.820Z,4.90
2019-02-09T01:55:50.399Z,5.00
2019-02-09T02:00:56.674Z,5.10
2019-02-09T02:06:02.914Z,5.30
2019-02-09T02:11:09.636Z,5.40
2019-02-09T02:16:15.794Z,5.40
2019-02-09T02:21:22.551Z,5.50
2019-02-09T02:26:28.317Z,5.50
2019-02-09T02:31:35.052Z,5.50
2019-02-09T02:36:41.955Z,5.50
2019-02-09T02:41:48.778Z,5.60
2019-02-09T02:46:55.298Z,5.50
2019-02-09T02:52:01.467Z,5.50
2019-02-09T02:57:07.619Z,5.40
2019-02-09T03:02:13.677Z,5.30
2019-02-09T03:07:19.795Z,5.20
2019-02-09T03:12:26.503Z,5.20
2019-02-09T03:17:44.709Z,5.20
2019-02-09T03:22:51.406Z,5.00
2019-02-09T03:27:58.030Z,5.10
2019-02-09T03:33:04.534Z,5.10
2019-02-09T03:38:11.073Z,5.00
2019-02-09T03:43:17.780Z,4.90
2019-02-09T03:48:23.315Z,4.90
2019-02-09T03:53:28.807Z,5.00
2019-02-09T03:58:35.087Z,5.00
2019-02-09T04:03:41.380Z,5.00
2019-02-09T04:08:48.725Z,5.10
2019-02-09T04:13:55.284Z,5.00
2019-02-09T04:19:01.371Z,5.00
2019-02-09T04:24:07.717Z,5.10
2019-02-09T04:29:14.097Z,5.20
2019-02-09T04:34:20.053Z,5.10
2019-02-09T04:39:26.646Z,5.20
2019-02-09T04:44:34.502Z,5.30
2019-02-09T04:49:40.929Z,5.40
2019-02-09T04:54:47.277Z,5.40
2019-02-09T04:59:53.532Z,5.40
2019-02-09T05:05:00.242Z,5.50
2019-02-09T05:10:11.262Z,5.40
2019-02-09T05:15:19.832Z,5.60
2019-02-09T05:20:26.897Z,5.60
2019-02-09T05:25:33.438Z,5.70
2019-02-09T05:30:39.677Z,5.70
2019-02-09T05:35:46.020Z,5.70
2019-02-09T05:40:52.429Z,5.80
2019-02-09T05:45:58.378Z,5.80
2019-02-09T05:51:04.502Z,5.70
2019-02-09T05:56:10.405Z,5.70
2019-02-09T06:01:17.171Z,5.60
2019-02-09T06:06:23.040Z,5.60
2019-02-09T06:11:30.555Z,5.50
2019-02-09T06:16:37.375Z,5.50
2019-02-09T06:21:45.790Z,5.50
2019-02-09T06:26:52.243Z,5.40
2019-02-09T06:31:58.960Z,5.30
2019-02-09T06:37:05.262Z,5.30
2019-02-09T06:42:13.670Z,5.20
2019-02-09T06:47:19.930Z,5.20
2019-02-09T06:52:27.114Z,5.20
2019-02-09T06:57:32.545Z,5.00
2019-02-09T07:02:38.806Z,5.00
2019-02-09T07:07:45.456Z,5.00
2019-02-09T07:12:52.244Z,4.90
2019-02-09T07:17:58.789Z,4.90
2019-02-09T07:23:06.407Z,5.00
2019-02-09T07:28:15.541Z,5.00
2019-02-09T07:33:21.915Z,5.00
2019-02-09T07:38:27.645Z,5.10
2019-02-09T07:43:33.650Z,5.10
2019-02-09T07:48:40.215Z,5.10
2019-02-09T07:53:46.593Z,5.20
2019-02-09T07:58:56.339Z,5.30
2019-02-09T08:04:02.678Z,5.40
2019-02-09T08:09:12.088Z,5.40
2019-02-09T08:14:20.002Z,5.50
2019-02-09T08:19:25.457Z,5.50
2019-02-09T08:24:31.863Z,5.50
2019-02-09T08:29:38.710Z,5.50
2019-02-09T08:34:45.369Z,5.50
2019-02-09T08:39:52.131Z,5.50
2019-02-09T08:45:01.342Z,5.40
2019-02-09T08:50:30.149Z,5.50
2019-02-09T08:55:36.559Z,5.70
2019-02-09T09:00:43.133Z,5.90
2019-02-09T09:05:49.702Z,6.10
2019-02-09T09:10:56.261Z,6.10
2019-02-09T09:16:02.903Z,6.20
2019-02-09T09:21:10.188Z,6.40
2019-02-09T09:26:16.610Z,6.60
2019-02-09T09:31:22.749Z,6.60
2019-02-09T09:36:29.074Z,6.80
2019-02-09T09:41:35.216Z,6.90
2019-02-09T09:46:41.422Z,6.90
2019-02-09T09:51:47.882Z,7.10
2019-02-09T09:56:53.952Z,7.10
2019-02-09T10:02:00.173Z,6.90
2019-02-09T10:07:07.946Z,6.80
2019-02-09T10:12:14.335Z,6.80
2019-02-09T10:17:20.821Z,6.70
2019-02-09T10:22:26.334Z,6.90
2019-02-09T10:27:33.084Z,6.80
2019-02-09T10:32:44.316Z,6.60
2019-02-09T10:37:47.718Z,6.50
2019-02-09T10:42:54.295Z,6.70
2019-02-09T10:48:04.181Z,6.60
2019-02-09T10:53:11.119Z,6.90
2019-02-09T10:58:17.216Z,7.20
2019-02-09T11:03:22.727Z,7.40
2019-02-09T11:08:28.330Z,7.50
2019-02-09T11:13:36.292Z,7.60
2019-02-09T11:18:42.742Z,7.60
2019-02-09T11:23:49.190Z,7.90
2019-02-09T11:28:57.432Z,8.10
2019-02-09T11:34:03.930Z,8.10
2019-02-09T11:39:10.204Z,8.20
2019-02-09T11:44:16.637Z,8.40
2019-02-09T11:49:23.151Z,8.40
2019-02-09T11:54:28.911Z,8.40
2019-02-09T11:59:35.602Z,8.60
2019-02-09T12:04:42.308Z,8.50
2019-02-09T12:09:49.993Z,8.70
2019-02-09T12:14:56.103Z,8.80
2019-02-09T12:20:03.533Z,8.80
2019-02-09T12:25:14.505Z,8.60
2019-02-09T12:30:26.935Z,8.50
2019-02-09T12:35:33.433Z,8.60
2019-02-09T12:40:40.040Z,8.70
2019-02-09T12:45:46.662Z,8.40
2019-02-09T12:50:53.469Z,8.40
2019-02-09T12:55:59.796Z,8.20
2019-02-09T13:01:08.121Z,8.50
2019-02-09T13:06:15.709Z,8.40
2019-02-09T13:11:22.421Z,8.50
2019-02-09T13:16:29.044Z,8.60
2019-02-09T13:21:36.702Z,8.70
2019-02-09T13:26:44.232Z,8.60
2019-02-09T13:31:50.999Z,8.60
2019-02-09T13:36:57.277Z,8.40
2019-02-09T13:42:04.263Z,8.70
2019-02-09T13:47:13.648Z,8.50
2019-02-09T13:52:20.331Z,8.60
2019-02-09T13:57:26.703Z,9.00
2019-02-09T14:02:33.350Z,8.70
2019-02-09T14:07:40.238Z,8.80
2019-02-09T14:12:46.709Z,8.80
2019-02-09T14:18:12.009Z,8.60
2019-02-09T14:23:18.764Z,8.60
2019-02-09T14:28:26.091Z,8.20
2019-02-09T14:33:32.714Z,8.30
2019-02-09T14:38:40.214Z,7.80
2019-02-09T14:43:46.826Z,7.90
2019-02-09T14:48:53.218Z,7.90
2019-02-09T14:53:59.678Z,7.70
2019-02-09T14:59:05.912Z,7.70
2019-02-09T15:04:13.613Z,7.50
2019-02-09T15:09:19.905Z,7.20
2019-02-09T15:14:25.546Z,7.30
2019-02-09T15:19:33.337Z,7.10
2019-02-09T15:24:39.931Z,7.00
2019-02-09T15:29:46.651Z,7.00
2019-02-09T15:34:53.332Z,7.00
2019-02-09T15:40:00.005Z,6.70
2019-02-09T15:45:10.886Z,6.60
2019-02-09T15:50:18.773Z,6.40
2019-02-09T15:55:25.539Z,6.40
2019-02-09T16:00:32.568Z,6.30
2019-02-09T16:05:39.288Z,6.20
2019-02-09T16:10:45.455Z,6.10
2019-02-09T16:15:52.703Z,6.00
2019-02-09T16:20:59.043Z,5.90
2019-02-09T16:26:05.634Z,5.80
2019-02-09T16:31:12.384Z,5.80
2019-02-09T16:36:20.838Z,5.70
2019-02-09T16:41:26.511Z,5.60
2019-02-09T16:46:33.123Z,5.70
2019-02-09T16:51:39.808Z,5.60
2019-02-09T16:56:46.606Z,5.60
2019-02-09T17:01:55.696Z,5.60
2019-02-09T17:07:02.103Z,5.50
2019-02-09T17:12:08.574Z,5.50
2019-02-09T17:17:14.979Z,5.50
2019-02-09T17:22:21.145Z,5.50
2019-02-09T17:27:26.852Z,5.60
2019-02-09T17:32:32.569Z,5.60
2019-02-09T17:37:38.770Z,5.50
2019-02-09T17:42:44.961Z,5.60
2019-02-09T17:47:51.426Z,5.60
2019-02-09T17:52:57.576Z,5.50
2019-02-09T17:58:05.609Z,5.50
2019-02-09T18:03:12.096Z,5.50
2019-02-09T18:08:19.139Z,5.50
2019-02-09T18:13:24.765Z,5.60
2019-02-09T18:18:31.353Z,5.50
2019-02-09T18:23:37.920Z,5.60
2019-02-09T18:28:44.603Z,5.50
2019-02-09T18:33:51.647Z,5.50
2019-02-09T18:38:59.648Z,5.50
2019-02-09T18:44:07.667Z,5.50
2019-02-09T18:49:15.743Z,5.50
2019-02-09T18:54:22.331Z,5.40
2019-02-09T18:59:28.101Z,5.40
2019-02-09T19:04:34.694Z,5.30
2019-02-09T19:09:41.596Z,5.30
2019-02-09T19:14:48.870Z,5.30
2019-02-09T19:19:55.231Z,5.30
2019-02-09T19:25:03.052Z,5.30
2019-02-09T19:30:23.130Z,5.30
2019-02-09T19:35:28.774Z,5.30
2019-02-09T19:40:35.486Z,5.30
2019-02-09T19:45:42.150Z,5.20
2019-02-09T19:51:00.969Z,5.30
2019-02-09T19:56:07.382Z,5.30
2019-02-09T20:01:13.805Z,5.30
2019-02-09T20:06:20.086Z,5.20
2019-02-09T20:11:25.733Z,5.20
2019-02-09T20:16:32.534Z,5.20
2019-02-09T20:21:40.221Z,5.30
2019-02-09T20:26:46.570Z,5.20
2019-02-09T20:31:52.776Z,5.10
2019-02-09T20:36:59.209Z,5.20
2019-02-09T20:42:06.695Z,5.10
2019-02-09T20:47:13.416Z,5.00
2019-02-09T20:52:20.058Z,5.00
2019-02-09T20:57:25.694Z,5.00
2019-02-09T21:02:32.046Z,5.00
2019-02-09T21:07:38.928Z,4.90
2019-02-09T21:12:46.263Z,4.90
2019-02-09T21:17:54.171Z,4.90
2019-02-09T21:23:00.767Z,5.00
2019-02-09T21:28:07.544Z,5.00
2019-02-09T21:33:14.412Z,5.00
2019-02-09T21:38:21.368Z,5.10
2019-02-09T21:43:27.136Z,5.10
2019-02-09T21:48:33.879Z,5.10
2019-02-09T21:53:41.407Z,5.00
2019-02-09T21:58:48.254Z,5.00
2019-02-09T22:03:55.001Z,4.90
2019-02-09T22:09:01.759Z,4.90
2019-02-09T22:14:09.975Z,4.90
2019-02-09T22:19:17.382Z,4.90
2019-02-09T22:24:23.058Z,4.90
2019-02-09T22:29:28.746Z,4.80
2019-02-09T22:34:34.393Z,4.90
2019-02-09T22:39:41.113Z,5.00
2019-02-09T22:44:47.956Z,5.00
2019-02-09T22:49:56.445Z,5.00
2019-02-09T22:55:03.157Z,5.10
2019-02-09T23:00:19.865Z,5.00
2019-02-09T23:06:11.465Z,5.10
2019-02-09T23:11:18.336Z,5.10
2019-02-09T23:16:23.976Z,5.00
2019-02-09T23:21:29.747Z,5.00
2019-02-09T23:26:36.328Z,5.00
2019-02-09T23:31:42.946Z,5.10
2019-02-09T23:36:50.897Z,5.10
2019-02-09T23:41:57.506Z,5.10
2019-02-09T23:47:04.111Z,5.10
2019-02-09T23:52:10.651Z,5.10
2019-02-09T23:57:38.656Z,5.00
